Time,TemperatureF,DewpointF,PressureIn,WindDirection,WindDirectionDegrees,WindSpeedMPH,WindSpeedGustMPH,Humidity,HourlyPrecipIn,Conditions,Clouds,dailyrainin,SoftwareType,DateUTC
2013-03-08 00:01:00,45.0,43.0,26.28,NE,41,2.0,3.0,92,-99.99,,,-99.99,,2013-03-08 08:01:00,
2013-03-08 00:11:00,45.0,43.0,26.28,NE,46,3.0,4.0,92,-99.99,,,-99.99,,2013-03-08 08:11:00,
2013-03-08 00:21:00,46.0,44.0,26.31,NE,52,2.0,3.0,92,-99.99,,,-99.99,,2013-03-08 08:21:00,
2013-03-08 00:31:00,46.0,44.0,26.31,NE,39,2.0,3.0,93,-99.99,,,-99.99,,2013-03-08 08:31:00,
2013-03-08 00:41:00,46.0,44.0,26.31,NE,50,3.0,5.0,93,-99.99,,,-99.99,,2013-03-08 08:41:00,
2013-03-08 00:52:00,46.0,44.0,26.31,NNE,33,3.0,4.0,93,-99.99,,,-99.99,,2013-03-08 08:52:00,
2013-03-08 01:02:00,47.0,45.0,26.31,NE,48,2.0,5.0,93,-99.99,,,-99.99,,2013-03-08 09:02:00,
2013-03-08 01:11:00,47.0,45.0,26.31,ENE,60,1.0,2.0,94,-99.99,,,-99.99,,2013-03-08 09:11:00,
2013-03-08 01:21:00,47.0,45.0,26.34,NE,47,2.0,5.0,94,-99.99,,,-99.99,,2013-03-08 09:21:00,
2013-03-08 01:31:00,47.0,45.0,26.34,ENE,70,1.0,4.0,94,-99.99,,,-99.99,,2013-03-08 09:31:00,
2013-03-08 01:42:00,48.0,46.0,26.34,SSW,208,1.0,4.0,94,-99.99,,,-99.99,,2013-03-08 09:42:00,
2013-03-08 01:51:00,48.0,46.0,26.34,SW,235,2.0,4.0,94,-99.99,,,-99.99,,2013-03-08 09:51:00,
2013-03-08 02:01:00,49.0,47.0,26.34,SW,221,0.0,2.0,94,-99.99,,,-99.99,,2013-03-08 10:01:00,
2013-03-08 02:11:00,49.0,47.0,26.34,ENE,65,2.0,4.0,93,-99.99,,,-99.99,,2013-03-08 10:11:00,
2013-03-08 02:21:00,49.0,47.0,26.34,East,90,1.0,4.0,94,-99.99,,,-99.99,,2013-03-08 10:21:00,
2013-03-08 02:31:00,50.0,48.0,26.34,South,169,2.0,5.0,93,-99.99,,,-99.99,,2013-03-08 10:31:00,
2013-03-08 02:41:00,50.0,48.0,26.34,SE,141,4.0,8.0,92,-99.99,,,-99.99,,2013-03-08 10:41:00,
2013-03-08 02:51:00,50.0,47.0,26.34,South,189,3.0,5.0,91,-99.99,,,-99.99,,2013-03-08 10:51:00,
2013-03-08 03:01:00,50.0,47.0,26.34,South,189,3.0,5.0,91,-99.99,,,-99.99,,2013-03-08 11:01:00,
2013-03-08 03:11:00,50.0,48.0,26.34,NNW,337,1.0,2.0,92,-99.99,,,-99.99,,2013-03-08 11:11:00,
2013-03-08 03:21:00,50.0,48.0,26.34,NNE,28,2.0,3.0,92,-99.99,,,-99.99,,2013-03-08 11:21:00,
2013-03-08 03:32:00,50.0,48.0,26.34,NNW,329,5.0,21.0,92,-99.99,,,-99.99,,2013-03-08 11:32:00,
2013-03-08 03:41:00,50.0,48.0,26.34,WSW,247,10.0,17.0,92,-99.99,,,-99.99,,2013-03-08 11:41:00,
2013-03-08 03:52:00,50.0,48.0,26.34,WSW,249,9.0,19.0,92,-99.99,,,-99.99,,2013-03-08 11:52:00,
2013-03-08 04:01:00,49.0,46.0,26.31,WSW,245,8.0,18.0,91,-99.99,,,-99.99,,2013-03-08 12:01:00,
2013-03-08 04:11:00,49.0,46.0,26.31,WSW,256,10.0,21.0,91,-99.99,,,-99.99,,2013-03-08 12:11:00,
2013-03-08 04:22:00,48.0,45.0,26.31,WSW,254,7.0,20.0,90,-99.99,,,-99.99,,2013-03-08 12:22:00,
2013-03-08 04:32:00,48.0,45.0,26.28,West,277,5.0,12.0,89,-99.99,,,-99.99,,2013-03-08 12:32:00,
2013-03-08 04:42:00,48.0,45.0,26.28,NW,321,4.0,9.0,90,-99.99,,,-99.99,,2013-03-08 12:42:00,
2013-03-08 04:52:00,48.0,45.0,26.31,North,352,4.0,8.0,90,-99.99,,,-99.99,,2013-03-08 12:52:00,
2013-03-08 05:01:00,48.0,45.0,26.31,NNE,15,6.0,10.0,91,-99.99,,,-99.99,,2013-03-08 13:01:00,
2013-03-08 05:11:00,48.0,45.0,26.28,NW,326,2.0,6.0,90,-99.99,,,-99.99,,2013-03-08 13:11:00,
2013-03-08 05:21:00,48.0,45.0,26.28,NNE,23,1.0,2.0,90,-99.99,,,-99.99,,2013-03-08 13:21:00,
2013-03-08 05:32:00,48.0,45.0,26.28,NE,42,1.0,2.0,91,-99.99,,,-99.99,,2013-03-08 13:32:00,
2013-03-08 05:42:00,48.0,45.0,26.31,NNE,15,1.0,3.0,91,-99.99,,,-99.99,,2013-03-08 13:42:00,
2013-03-08 05:52:00,48.0,46.0,26.31,NW,320,2.0,3.0,92,-99.99,,,-99.99,,2013-03-08 13:52:00,
2013-03-08 06:02:00,48.0,46.0,26.31,WNW,291,1.0,2.0,92,-99.99,,,-99.99,,2013-03-08 14:02:00,
2013-03-08 06:11:00,47.0,45.0,26.31,NE,49,2.0,4.0,92,-99.99,,,-99.99,,2013-03-08 14:11:00,
2013-03-08 06:21:00,47.0,45.0,26.31,SSW,207,2.0,5.0,93,-99.99,,,-99.99,,2013-03-08 14:21:00,
2013-03-08 06:32:00,47.0,45.0,26.31,SSW,210,3.0,4.0,93,-99.99,,,-99.99,,2013-03-08 14:32:00,
2013-03-08 06:42:00,47.0,45.0,26.31,SSW,194,2.0,4.0,93,-99.99,,,-99.99,,2013-03-08 14:42:00,
2013-03-08 06:52:00,46.0,44.0,26.31,SE,129,1.0,3.0,93,-99.99,,,-99.99,,2013-03-08 14:52:00,
2013-03-08 07:02:00,47.0,45.0,26.31,ENE,58,2.0,4.0,93,-99.99,,,-99.99,,2013-03-08 15:02:00,
2013-03-08 07:11:00,47.0,45.0,26.31,NE,45,1.0,2.0,93,-99.99,,,-99.99,,2013-03-08 15:11:00,
2013-03-08 07:21:00,46.0,44.0,26.31,ENE,75,1.0,2.0,93,-99.99,,,-99.99,,2013-03-08 15:21:00,
2013-03-08 07:31:00,46.0,44.0,26.31,NNE,18,0.0,1.0,93,-99.99,,,-99.99,,2013-03-08 15:31:00,
2013-03-08 07:42:00,46.0,44.0,26.31,NE,50,1.0,2.0,94,-99.99,,,-99.99,,2013-03-08 15:42:00,
2013-03-08 07:52:00,46.0,44.0,26.31,ENE,65,2.0,4.0,94,-99.99,,,-99.99,,2013-03-08 15:52:00,
2013-03-08 08:01:00,47.0,45.0,26.34,ENE,66,3.0,5.0,94,-99.99,,,-99.99,,2013-03-08 16:01:00,
2013-03-08 08:11:00,48.0,46.0,26.34,NE,54,4.0,5.0,93,-99.99,,,-99.99,,2013-03-08 16:11:00,
2013-03-08 08:21:00,49.0,46.0,26.31,NE,55,3.0,5.0,91,-99.99,,,-99.99,,2013-03-08 16:21:00,
2013-03-08 08:31:00,50.0,46.0,26.28,ENE,57,2.0,4.0,86,-99.99,,,-99.99,,2013-03-08 16:31:00,
2013-03-08 08:41:00,50.0,45.0,26.26,ENE,76,3.0,4.0,82,-99.99,,,-99.99,,2013-03-08 16:41:00,
2013-03-08 08:51:00,51.0,45.0,26.23,NE,48,3.0,5.0,79,-99.99,,,-99.99,,2013-03-08 16:51:00,
2013-03-08 09:02:00,51.0,43.0,26.20,ENE,74,3.0,5.0,75,-99.99,,,-99.99,,2013-03-08 17:02:00,
2013-03-08 09:11:00,51.0,44.0,26.23,ESE,123,2.0,4.0,77,-99.99,,,-99.99,,2013-03-08 17:11:00,
2013-03-08 09:21:00,53.0,44.0,26.17,SSE,157,1.0,3.0,71,-99.99,,,-99.99,,2013-03-08 17:21:00,
2013-03-08 09:31:00,52.0,43.0,26.17,SSW,200,3.0,7.0,72,-99.99,,,-99.99,,2013-03-08 17:31:00,
2013-03-08 09:41:00,52.0,42.0,26.14,SW,229,5.0,10.0,69,-99.99,,,-99.99,,2013-03-08 17:41:00,
2013-03-08 09:52:00,52.0,41.0,26.14,SW,218,3.0,6.0,67,-99.99,,,-99.99,,2013-03-08 17:52:00,
2013-03-08 10:01:00,54.0,42.0,26.11,SSW,212,4.0,8.0,64,-99.99,,,-99.99,,2013-03-08 18:01:00,
2013-03-08 10:11:00,54.0,41.0,26.08,SSW,201,5.0,9.0,61,-99.99,,,-99.99,,2013-03-08 18:11:00,
2013-03-08 10:21:00,54.0,42.0,26.11,SSW,195,6.0,11.0,63,-99.99,,,-99.99,,2013-03-08 18:21:00,
2013-03-08 10:31:00,53.0,39.0,26.08,SW,215,7.0,14.0,60,-99.99,,,-99.99,,2013-03-08 18:31:00,
2013-03-08 10:42:00,53.0,40.0,26.08,SW,229,6.0,10.0,62,-99.99,,,-99.99,,2013-03-08 18:42:00,
2013-03-08 10:51:00,53.0,40.0,26.08,SSW,212,6.0,11.0,61,-99.99,,,-99.99,,2013-03-08 18:51:00,
2013-03-08 11:01:00,54.0,41.0,26.08,SSW,203,8.0,14.0,61,-99.99,,,-99.99,,2013-03-08 19:01:00,
2013-03-08 11:11:00,53.0,41.0,26.08,SSW,213,8.0,14.0,63,-99.99,,,-99.99,,2013-03-08 19:11:00,
2013-03-08 11:21:00,53.0,41.0,26.08,SW,214,8.0,12.0,64,-99.99,,,-99.99,,2013-03-08 19:21:00,
2013-03-08 11:31:00,53.0,42.0,26.11,South,187,6.0,11.0,65,-99.99,,,-99.99,,2013-03-08 19:31:00,
2013-03-08 11:41:00,53.0,41.0,26.11,South,190,7.0,12.0,64,-99.99,,,-99.99,,2013-03-08 19:41:00,
2013-03-08 11:51:00,53.0,39.0,26.05,SW,215,8.0,13.0,60,-99.99,,,-99.99,,2013-03-08 19:51:00,
2013-03-08 12:01:00,50.0,41.0,26.14,WSW,239,9.0,16.0,72,-99.99,,,-99.99,,2013-03-08 20:01:00,
2013-03-08 12:11:00,51.0,41.0,26.11,SW,231,4.0,7.0,69,-99.99,,,-99.99,,2013-03-08 20:11:00,
2013-03-08 12:21:00,52.0,42.0,26.11,WSW,240,7.0,15.0,68,-99.99,,,-99.99,,2013-03-08 20:21:00,
2013-03-08 12:31:00,52.0,39.0,26.05,SW,223,9.0,15.0,62,-99.99,,,-99.99,,2013-03-08 20:31:00,
2013-03-08 12:41:00,52.0,42.0,26.11,SW,234,10.0,17.0,69,-99.99,,,-99.99,,2013-03-08 20:41:00,
2013-03-08 12:52:00,51.0,42.0,26.14,SW,226,11.0,17.0,71,-99.99,,,-99.99,,2013-03-08 20:52:00,
2013-03-08 13:01:00,51.0,42.0,26.14,SW,236,9.0,13.0,71,-99.99,,,-99.99,,2013-03-08 21:01:00,
2013-03-08 13:11:00,51.0,42.0,26.11,WSW,249,8.0,15.0,70,-99.99,,,-99.99,,2013-03-08 21:11:00,
2013-03-08 13:21:00,51.0,40.0,26.08,WSW,249,8.0,13.0,67,-99.99,,,-99.99,,2013-03-08 21:21:00,
2013-03-08 13:32:00,52.0,40.0,26.05,WSW,239,8.0,12.0,63,-99.99,,,-99.99,,2013-03-08 21:32:00,
2013-03-08 13:41:00,52.0,40.0,26.05,WSW,239,8.0,12.0,63,-99.99,,,-99.99,,2013-03-08 21:41:00,
2013-03-08 13:51:00,52.0,39.0,26.02,WSW,238,6.0,12.0,61,-99.99,,,-99.99,,2013-03-08 21:51:00,
2013-03-08 14:01:00,52.0,41.0,26.05,WNW,284,7.0,11.0,65,-99.99,,,-99.99,,2013-03-08 22:01:00,
2013-03-08 14:11:00,51.0,42.0,26.14,NW,324,7.0,12.0,70,-99.99,,,-99.99,,2013-03-08 22:11:00,
2013-03-08 14:21:00,52.0,40.0,26.05,NW,321,5.0,11.0,63,-99.99,,,-99.99,,2013-03-08 22:21:00,
2013-03-08 14:32:00,53.0,39.0,26.02,West,264,4.0,8.0,60,-99.99,,,-99.99,,2013-03-08 22:32:00,
2013-03-08 14:41:00,52.0,39.0,26.02,NNW,339,4.0,8.0,60,-99.99,,,-99.99,,2013-03-08 22:41:00,
2013-03-08 14:52:00,52.0,38.0,26.02,WNW,283,3.0,9.0,59,-99.99,,,-99.99,,2013-03-08 22:52:00,
2013-03-08 15:01:00,52.0,38.0,26.02,WNW,294,3.0,5.0,58,-99.99,,,-99.99,,2013-03-08 23:01:00,
2013-03-08 15:11:00,52.0,39.0,26.02,North,355,6.0,9.0,61,-99.99,,,-99.99,,2013-03-08 23:11:00,
2013-03-08 15:21:00,52.0,39.0,26.05,NNE,29,6.0,10.0,62,-99.99,,,-99.99,,2013-03-08 23:21:00,
2013-03-08 15:31:00,52.0,39.0,26.05,NE,36,4.0,7.0,62,-99.99,,,-99.99,,2013-03-08 23:31:00,
2013-03-08 15:41:00,52.0,39.0,26.02,NNW,332,3.0,5.0,60,-99.99,,,-99.99,,2013-03-08 23:41:00,
2013-03-08 15:52:00,52.0,39.0,26.02,SW,222,4.0,10.0,60,-99.99,,,-99.99,,2013-03-08 23:52:00,
2013-03-08 16:01:00,52.0,39.0,26.02,SW,222,4.0,10.0,60,-99.99,,,-99.99,,2013-03-09 00:01:00,
2013-03-08 16:11:00,52.0,39.0,26.02,WSW,256,4.0,8.0,60,-99.99,,,-99.99,,2013-03-09 00:11:00,
2013-03-08 16:21:00,52.0,39.0,26.02,SW,223,7.0,13.0,60,-99.99,,,-99.99,,2013-03-09 00:21:00,
2013-03-08 16:31:00,53.0,39.0,26.02,SW,227,7.0,11.0,59,-99.99,,,-99.99,,2013-03-09 00:31:00,
2013-03-08 16:42:00,53.0,39.0,25.99,SW,219,8.0,13.0,58,-99.99,,,-99.99,,2013-03-09 00:42:00,
2013-03-08 16:50:00,53.0,40.0,26.05,WSW,237,8.0,13.0,61,-99.99,,,-99.99,,2013-03-09 00:50:00,
2013-03-08 16:51:00,53.0,39.0,26.02,WSW,241,7.0,12.0,58,-99.99,,,-99.99,,2013-03-09 00:51:00,
2013-03-08 17:01:00,53.0,39.0,26.05,SW,228,8.0,11.0,60,-99.99,,,-99.99,,2013-03-09 01:01:00,
2013-03-08 17:12:00,53.0,39.0,26.05,SW,226,7.0,11.0,60,-99.99,,,-99.99,,2013-03-09 01:12:00,
2013-03-08 17:21:00,53.0,40.0,26.05,WSW,237,8.0,13.0,61,-99.99,,,-99.99,,2013-03-09 01:21:00,
2013-03-08 17:31:00,53.0,40.0,26.05,WSW,237,8.0,13.0,61,-99.99,,,-99.99,,2013-03-09 01:31:00,
2013-03-08 17:41:00,53.0,40.0,26.05,WSW,237,8.0,13.0,61,-99.99,,,-99.99,,2013-03-09 01:41:00,
2013-03-08 19:11:00,51.0,42.0,26.08,South,183,6.0,9.0,70,-99.99,,,-99.99,,2013-03-09 03:11:00,
2013-03-08 19:21:00,51.0,42.0,26.08,South,183,6.0,9.0,70,-99.99,,,-99.99,,2013-03-09 03:21:00,
2013-03-08 19:31:00,51.0,42.0,26.11,South,175,4.0,5.0,71,-99.99,,,-99.99,,2013-03-09 03:31:00,
2013-03-08 19:41:00,51.0,42.0,26.11,South,178,3.0,5.0,71,-99.99,,,-99.99,,2013-03-09 03:41:00,
2013-03-08 19:52:00,51.0,42.0,26.11,SSE,168,3.0,5.0,72,-99.99,,,-99.99,,2013-03-09 03:52:00,
2013-03-08 20:01:00,51.0,42.0,26.11,SSE,152,3.0,5.0,72,-99.99,,,-99.99,,2013-03-09 04:01:00,
2013-03-08 20:11:00,51.0,42.0,26.11,SE,144,2.0,4.0,72,-99.99,,,-99.99,,2013-03-09 04:11:00,
2013-03-08 20:22:00,51.0,42.0,26.11,SE,125,2.0,5.0,72,-99.99,,,-99.99,,2013-03-09 04:22:00,
2013-03-08 20:31:00,51.0,42.0,26.11,ESE,122,2.0,3.0,72,-99.99,,,-99.99,,2013-03-09 04:31:00,
2013-03-08 20:41:00,50.0,42.0,26.11,East,89,1.0,4.0,73,-99.99,,,-99.99,,2013-03-09 04:41:00,
2013-03-08 20:51:00,50.0,42.0,26.14,East,81,3.0,6.0,75,-99.99,,,-99.99,,2013-03-09 04:51:00,
2013-03-08 21:01:00,50.0,42.0,26.14,East,81,3.0,6.0,75,-99.99,,,-99.99,,2013-03-09 05:01:00,
2013-03-08 21:11:00,50.0,42.0,26.14,ESE,112,4.0,8.0,75,-99.99,,,-99.99,,2013-03-09 05:11:00,
2013-03-08 21:21:00,50.0,43.0,26.17,WNW,302,3.0,7.0,77,-99.99,,,-99.99,,2013-03-09 05:21:00,
2013-03-08 21:31:00,50.0,44.0,26.20,NNE,20,3.0,5.0,79,-99.99,,,-99.99,,2013-03-09 05:31:00,
2013-03-08 21:42:00,49.0,44.0,26.23,ENE,72,3.0,4.0,83,-99.99,,,-99.99,,2013-03-09 05:42:00,
2013-03-08 21:52:00,48.0,45.0,26.28,ENE,57,2.0,3.0,88,-99.99,,,-99.99,,2013-03-09 05:52:00,
2013-03-08 22:01:00,48.0,45.0,26.28,ENE,57,2.0,3.0,88,-99.99,,,-99.99,,2013-03-09 06:01:00,
2013-03-08 22:11:00,48.0,45.0,26.28,ENE,78,1.0,2.0,89,-99.99,,,-99.99,,2013-03-09 06:11:00,
2013-03-08 22:22:00,48.0,45.0,26.28,ENE,69,2.0,3.0,90,-99.99,,,-99.99,,2013-03-09 06:22:00,
2013-03-08 22:31:00,48.0,45.0,26.28,NE,48,3.0,4.0,90,-99.99,,,-99.99,,2013-03-09 06:31:00,
2013-03-08 22:42:00,48.0,45.0,26.28,NE,48,3.0,4.0,90,-99.99,,,-99.99,,2013-03-09 06:42:00,
2013-03-08 22:51:00,48.0,45.0,26.31,NNE,28,2.0,3.0,90,-99.99,,,-99.99,,2013-03-09 06:51:00,
2013-03-08 23:01:00,48.0,45.0,26.31,NE,43,3.0,6.0,91,-99.99,,,-99.99,,2013-03-09 07:01:00,
2013-03-08 23:11:00,48.0,45.0,26.31,NE,51,4.0,6.0,91,-99.99,,,-99.99,,2013-03-09 07:11:00,
2013-03-08 23:21:00,48.0,46.0,26.31,East,83,3.0,6.0,92,-99.99,,,-99.99,,2013-03-09 07:21:00,
2013-03-08 23:31:00,48.0,46.0,26.31,North,355,2.0,4.0,92,-99.99,,,-99.99,,2013-03-09 07:31:00,
2013-03-08 23:41:00,48.0,46.0,26.31,North,355,2.0,4.0,92,-99.99,,,-99.99,,2013-03-09 07:41:00,
2013-03-08 23:51:00,48.0,46.0,26.34,NE,48,2.0,4.0,93,-99.99,,,-99.99,,2013-03-09 07:51:00,